Time;durP1;ratioP1;P1;durP2;ratioP2;P2;SDS_P1;SDS_P2;PMS_P1;PMS_P2;Temp;Humidity;BMP_temperature;BMP_pressure;BME280_temperature;BME280_humidity;BME280_pressure;Samples;Min_cycle;Max_cycle;Signal;HPM_P1;HPM_P2
2022/09/30 00:01:50;;;;;;;;;9.00;5.50;;;;;27.26;100.00;101379.06;5017704;28;51107;-47
2022/09/30 00:04:35;;;;;;;;;4.00;3.00;;;;;27.27;100.00;101372.63;5020442;28;50940;-51
2022/09/30 00:07:19;;;;;;;;;6.25;3.50;;;;;27.24;100.00;101364.63;5020961;28;51141;-48
2022/09/30 00:10:05;;;;;;;;;5.25;3.50;;;;;27.28;100.00;101366.19;5022900;28;51209;-52
2022/09/30 00:12:53;;;;;;;;;2.75;2.25;;;;;27.28;100.00;101360.75;5021021;28;51362;-48
2022/09/30 00:15:38;;;;;;;;;4.00;3.00;;;;;27.26;100.00;101368.16;5018078;28;51204;-52
2022/09/30 00:18:23;;;;;;;;;4.00;3.50;;;;;27.24;100.00;101361.91;5020173;28;51526;-47
2022/09/30 00:21:08;;;;;;;;;6.50;3.00;;;;;27.21;100.00;101360.25;5021956;28;51455;-47
2022/09/30 00:23:52;;;;;;;;;8.75;3.00;;;;;27.22;100.00;101359.28;5019675;28;51425;-49
2022/09/30 00:26:37;;;;;;;;;6.00;2.75;;;;;27.19;100.00;101356.72;5021348;28;52003;-50
2022/09/30 00:29:21;;;;;;;;;7.00;3.00;;;;;27.17;100.00;101347.75;5020253;28;51225;-51
2022/09/30 00:32:06;;;;;;;;;3.50;3.00;;;;;27.18;100.00;101360.44;5021382;28;51015;-49
2022/09/30 00:34:50;;;;;;;;;4.25;3.00;;;;;27.15;100.00;101355.16;5015795;28;51315;-47
2022/09/30 00:37:34;;;;;;;;;7.50;3.00;;;;;27.16;100.00;101359.66;5021833;28;51285;-47
2022/09/30 00:40:20;;;;;;;;;5.25;3.00;;;;;27.14;100.00;101358.00;5020303;28;51252;-46
2022/09/30 00:43:15;;;;;;;;;5.00;3.00;;;;;27.16;100.00;101356.91;5022520;28;51072;-49
2022/09/30 00:46:00;;;;;;;;;5.75;4.50;;;;;27.23;100.00;101365.59;5017507;28;51103;-45
2022/09/30 00:48:49;;;;;;;;;4.00;3.50;;;;;27.25;100.00;101349.13;4989304;28;51820;-49
2022/09/30 00:51:40;;;;;;;;;5.50;3.00;;;;;27.26;100.00;101345.41;5002663;28;51115;-49
2022/09/30 00:54:28;;;;;;;;;6.75;3.75;;;;;27.20;100.00;101339.38;5006683;28;51291;-47
2022/09/30 00:57:13;;;;;;;;;4.00;4.00;;;;;27.28;100.00;101344.34;5003548;28;51322;-47
2022/09/30 00:59:58;;;;;;;;;5.25;5.00;;;;;27.30;100.00;101346.97;5021133;28;51123;-49
2022/09/30 01:02:42;;;;;;;;;7.25;3.25;;;;;27.33;100.00;101349.50;5019370;28;51139;-48
2022/09/30 01:05:26;;;;;;;;;8.25;4.00;;;;;27.33;100.00;101349.50;5020032;28;51144;-48
2022/09/30 01:08:11;;;;;;;;;3.75;3.75;;;;;27.34;100.00;101351.28;5017448;28;51170;-46
2022/09/30 01:10:56;;;;;;;;;6.50;4.00;;;;;27.32;100.00;101336.81;5006516;28;51106;-50
2022/09/30 01:13:41;;;;;;;;;3.00;3.00;;;;;27.35;100.00;101348.41;5020351;28;51574;-46
2022/09/30 01:16:48;;;;;;;;;4.25;3.00;;;;;27.36;100.00;101346.56;5005500;28;51070;-49
2022/09/30 01:20:09;;;;;;;;;7.50;3.00;;;;;27.38;100.00;101333.69;5018518;28;51063;-50
2022/09/30 01:23:30;;;;;;;;;6.75;4.00;;;;;27.39;100.00;101343.63;5018985;28;51446;-50
2022/09/30 01:26:32;;;;;;;;;4.50;2.25;;;;;27.41;100.00;101335.34;5015376;28;51122;-47
2022/09/30 01:29:34;;;;;;;;;2.75;2.75;;;;;27.40;100.00;101331.72;5008449;28;51460;-46
2022/09/30 01:32:44;;;;;;;;;4.75;3.00;;;;;27.36;100.00;101333.78;5018312;28;51079;-47
2022/09/30 01:35:34;;;;;;;;;5.00;4.00;;;;;27.36;100.00;101324.69;4991990;28;51147;-49
2022/09/30 01:38:53;;;;;;;;;6.50;4.00;;;;;27.34;100.00;101326.69;5020230;28;51044;-47
2022/09/30 01:41:45;;;;;;;;;4.00;3.00;;;;;27.31;100.00;101329.59;5004109;28;51138;-48
2022/09/30 01:44:53;;;;;;;;;5.25;2.50;;;;;27.24;100.00;101326.38;5004621;28;52749;-47
2022/09/30 01:47:49;;;;;;;;;3.75;1.25;;;;;27.22;100.00;101321.03;5017515;28;51155;-48
2022/09/30 01:51:06;;;;;;;;;4.25;2.50;;;;;27.21;100.00;101324.75;5020856;28;52022;-46
2022/09/30 01:53:58;;;;;;;;;3.00;3.00;;;;;27.14;100.00;101308.84;5020357;28;51291;-49
2022/09/30 01:56:46;;;;;;;;;5.25;3.00;;;;;27.16;100.00;101315.94;5005927;28;51136;-49
2022/09/30 01:59:49;;;;;;;;;6.00;3.00;;;;;27.16;100.00;101320.53;5020344;28;51063;-49
2022/09/30 02:02:40;;;;;;;;;3.50;3.00;;;;;27.15;100.00;101321.53;5005956;28;51157;-50
2022/09/30 02:05:40;;;;;;;;;5.25;3.00;;;;;27.15;100.00;101329.72;5004251;28;51352;-51
2022/09/30 02:08:46;;;;;;;;;6.50;4.00;;;;;27.15;100.00;101335.19;5004049;28;51048;-52
2022/09/30 02:11:35;;;;;;;;;6.00;4.00;;;;;27.12;100.00;101333.53;5020236;28;51078;-47
2022/09/30 02:14:23;;;;;;;;;6.00;4.00;;;;;27.14;100.00;101327.97;5005537;28;51312;-47
2022/09/30 02:17:18;;;;;;;;;5.00;4.00;;;;;27.13;100.00;101318.91;5020121;28;51549;-47
2022/09/30 02:20:06;;;;;;;;;6.00;3.00;;;;;27.15;100.00;101316.06;5020221;28;51143;-48
2022/09/30 02:23:15;;;;;;;;;6.50;3.25;;;;;27.06;100.00;101307.50;5005384;28;51514;-48
2022/09/30 02:26:07;;;;;;;;;5.00;2.25;;;;;27.12;100.00;101308.94;5020067;28;51181;-48
2022/09/30 02:29:05;;;;;;;;;4.25;3.00;;;;;27.12;100.00;101311.69;5020511;28;52251;-49
2022/09/30 02:31:55;;;;;;;;;3.25;2.50;;;;;27.13;100.00;101310.72;5005142;28;51197;-50
2022/09/30 02:34:46;;;;;;;;;5.50;3.25;;;;;27.13;100.00;101307.06;5019930;28;51178;-51
2022/09/30 02:37:34;;;;;;;;;7.00;2.00;;;;;27.09;100.00;101311.00;5019919;28;51232;-50
2022/09/30 02:40:43;;;;;;;;;4.00;3.75;;;;;27.12;100.00;101308.06;4991481;28;51207;-51
2022/09/30 02:43:28;;;;;;;;;6.00;3.00;;;;;27.08;100.00;101310.09;5004820;28;51424;-51
2022/09/30 02:46:34;;;;;;;;;3.00;3.00;;;;;27.14;100.00;101314.31;5004847;28;51163;-49
2022/09/30 02:49:20;;;;;;;;;3.00;3.00;;;;;27.16;100.00;101321.41;5019997;28;51114;-50
2022/09/30 02:52:40;;;;;;;;;6.75;3.75;;;;;27.18;100.00;101310.41;5004635;28;51152;-51
2022/09/30 02:55:35;;;;;;;;;6.00;3.50;;;;;27.18;100.00;101311.25;5020143;28;51079;-49
2022/09/30 02:58:24;;;;;;;;;4.50;3.00;;;;;27.22;100.00;101306.47;5004431;28;51149;-47
2022/09/30 03:01:12;;;;;;;;;4.50;3.25;;;;;27.26;100.00;101296.22;5001585;28;51400;-47
2022/09/30 03:04:00;;;;;;;;;2.50;2.50;;;;;27.20;100.00;101278.38;5002275;28;51202;-47
2022/09/30 03:06:45;;;;;;;;;4.50;3.00;;;;;27.25;100.00;101289.88;5004646;28;51160;-48
2022/09/30 03:09:30;;;;;;;;;4.50;3.25;;;;;27.21;100.00;101291.06;5019601;28;51076;-48
2022/09/30 03:12:35;;;;;;;;;2.75;2.75;;;;;27.20;100.00;101295.66;5019462;28;51296;-48
2022/09/30 03:15:59;;;;;;;;;4.75;4.50;;;;;27.21;100.00;101293.78;5019628;28;51359;-50
2022/09/30 03:19:10;;;;;;;;;6.50;4.00;;;;;27.19;100.00;101284.84;5019059;28;51264;-49
2022/09/30 03:22:14;;;;;;;;;5.25;3.75;;;;;27.20;100.00;101292.03;5004431;28;51020;-49
2022/09/30 03:25:33;;;;;;;;;2.75;2.75;;;;;27.19;100.00;101287.56;5004242;28;51645;-50
2022/09/30 03:28:44;;;;;;;;;5.25;4.25;;;;;27.16;100.00;101285.91;5018852;28;51115;-49
2022/09/30 03:32:12;;;;;;;;;2.75;2.75;;;;;27.15;100.00;101288.75;5016265;28;51153;-50
2022/09/30 03:35:15;;;;;;;;;3.75;2.50;;;;;27.16;100.00;101296.81;5017328;28;51069;-48
2022/09/30 03:38:15;;;;;;;;;4.75;4.75;;;;;27.14;100.00;101295.19;5018399;28;51082;-48
2022/09/30 03:41:10;;;;;;;;;2.00;2.00;;;;;27.11;100.00;101296.25;5019226;28;51134;-49
2022/09/30 03:44:15;;;;;;;;;8.25;4.75;;;;;27.06;100.00;101287.47;5019075;28;51454;-47
2022/09/30 03:47:08;;;;;;;;;5.00;2.75;;;;;27.10;100.00;101299.97;5019031;28;51577;-49
2022/09/30 03:49:58;;;;;;;;;4.25;4.25;;;;;27.12;100.00;101306.22;5004367;28;51100;-48
2022/09/30 03:52:43;;;;;;;;;6.50;3.00;;;;;27.14;100.00;101306.09;5004357;28;51269;-47
2022/09/30 03:55:28;;;;;;;;;4.75;2.00;;;;;27.11;100.00;101303.56;5004054;28;51082;-48
2022/09/30 03:58:14;;;;;;;;;8.00;3.00;;;;;27.15;100.00;101310.59;5018732;28;51162;-47
2022/09/30 04:00:58;;;;;;;;;2.25;2.00;;;;;27.13;100.00;101304.34;5019154;28;51150;-47
2022/09/30 04:03:43;;;;;;;;;6.75;4.00;;;;;27.12;100.00;101308.06;5018852;28;51186;-48
2022/09/30 04:06:27;;;;;;;;;4.50;3.00;;;;;27.12;100.00;101310.78;5018997;28;51061;-47
2022/09/30 04:09:12;;;;;;;;;6.50;3.75;;;;;27.14;100.00;101308.84;5018809;28;51539;-47
2022/09/30 04:11:56;;;;;;;;;2.50;1.00;;;;;27.19;100.00;101306.69;5018753;28;51134;-48
2022/09/30 04:14:40;;;;;;;;;5.75;3.75;;;;;27.18;100.00;101310.41;5015096;28;51024;-48
2022/09/30 04:17:25;;;;;;;;;5.00;3.50;;;;;27.19;100.00;101312.16;5017825;28;51221;-49
2022/09/30 04:20:09;;;;;;;;;5.25;3.00;;;;;27.19;100.00;101309.44;5018693;28;51430;-49
2022/09/30 04:22:57;;;;;;;;;4.00;4.00;;;;;27.21;100.00;101308.34;5018810;28;51198;-48
2022/09/30 04:25:42;;;;;;;;;5.50;3.75;;;;;27.19;100.00;101304.81;5014834;28;51056;-51
2022/09/30 04:28:26;;;;;;;;;4.00;4.00;;;;;27.13;100.00;101291.59;5003532;28;51481;-49
2022/09/30 04:31:12;;;;;;;;;7.00;3.50;;;;;27.22;100.00;101295.53;5018786;28;51229;-49
2022/09/30 04:33:57;;;;;;;;;5.00;3.00;;;;;27.18;100.00;101300.34;5018813;28;51344;-49
2022/09/30 04:36:41;;;;;;;;;3.00;3.00;;;;;27.19;100.00;101307.56;5018817;28;51099;-49
2022/09/30 04:39:25;;;;;;;;;5.00;3.50;;;;;27.24;100.00;101317.31;5018749;28;50992;-48
2022/09/30 04:42:10;;;;;;;;;4.00;4.00;;;;;27.22;100.00;101312.84;5018723;28;51464;-50
2022/09/30 04:44:56;;;;;;;;;5.50;3.75;;;;;27.17;100.00;101300.44;5002811;28;51190;-48
2022/09/30 04:47:44;;;;;;;;;3.00;3.00;;;;;27.21;100.00;101311.06;5003286;28;51098;-50
2022/09/30 04:50:30;;;;;;;;;7.00;4.00;;;;;27.10;100.00;101299.06;5020430;28;51165;-49
2022/09/30 04:53:18;;;;;;;;;6.25;2.25;;;;;27.18;100.00;101304.94;5021963;28;51110;-49
2022/09/30 04:56:02;;;;;;;;;5.00;3.00;;;;;27.21;100.00;101319.28;5018670;28;51120;-50
2022/09/30 04:58:47;;;;;;;;;8.25;4.50;;;;;27.11;100.00;101306.28;5021926;28;51127;-48
2022/09/30 05:01:31;;;;;;;;;8.50;5.00;;;;;27.23;100.00;101324.63;5018478;28;51194;-48
2022/09/30 05:04:16;;;;;;;;;9.25;7.00;;;;;27.14;100.00;101314.31;5021939;28;51143;-47
2022/09/30 05:07:02;;;;;;;;;6.00;5.00;;;;;27.24;100.00;101331.84;5021859;28;51110;-47
2022/09/30 05:09:47;;;;;;;;;6.25;5.00;;;;;27.21;100.00;101330.19;5021724;28;51105;-49
2022/09/30 05:12:31;;;;;;;;;6.75;4.75;;;;;27.21;100.00;101335.66;5021549;28;51212;-50
2022/09/30 05:15:15;;;;;;;;;5.00;5.00;;;;;27.22;100.00;101342.00;5021810;28;51196;-49
2022/09/30 05:18:00;;;;;;;;;7.25;5.25;;;;;27.20;100.00;101346.66;5021363;28;51354;-47
2022/09/30 05:20:47;;;;;;;;;5.50;5.00;;;;;27.24;100.00;101359.16;5021445;28;51065;-47
2022/09/30 05:23:32;;;;;;;;;6.00;4.75;;;;;27.22;100.00;101350.19;5021412;28;51482;-49
2022/09/30 05:26:16;;;;;;;;;9.50;5.00;;;;;27.24;100.00;101350.09;5017096;28;51067;-51
2022/09/30 05:29:00;;;;;;;;;8.00;6.50;;;;;27.24;100.00;101347.38;5020184;28;51146;-51
2022/09/30 05:31:45;;;;;;;;;9.75;7.50;;;;;27.24;100.00;101350.97;5021393;28;51195;-49
2022/09/30 05:34:29;;;;;;;;;8.75;6.75;;;;;27.30;100.00;101364.22;5021341;28;51399;-49
2022/09/30 05:37:14;;;;;;;;;6.50;6.00;;;;;27.32;100.00;101370.47;5006221;28;51187;-47
2022/09/30 05:39:59;;;;;;;;;6.75;6.75;;;;;27.33;100.00;101366.75;5021277;28;51111;-41
2022/09/30 05:42:46;;;;;;;;;13.50;8.50;;;;;27.37;100.00;101372.91;5020672;28;51028;-41
2022/09/30 05:45:30;;;;;;;;;10.75;5.25;;;;;27.43;100.00;101379.81;5004416;28;51154;-41
2022/09/30 05:48:15;;;;;;;;;10.75;7.00;;;;;27.34;100.00;101359.47;5020852;28;51391;-42
2022/09/30 05:51:01;;;;;;;;;10.00;6.00;;;;;27.49;100.00;101374.00;5020711;28;52479;-45
2022/09/30 05:53:45;;;;;;;;;8.50;7.25;;;;;27.47;100.00;101376.81;5019769;28;51170;-43
2022/09/30 05:56:29;;;;;;;;;16.25;9.50;;;;;27.55;100.00;101389.13;5010287;28;51195;-44
2022/09/30 05:59:14;;;;;;;;;13.75;10.50;;;;;27.60;100.00;101395.16;5016771;28;51049;-44
2022/09/30 06:01:58;;;;;;;;;17.25;15.00;;;;;27.67;100.00;101399.28;5017133;28;51220;-43
2022/09/30 06:04:43;;;;;;;;;18.75;17.50;;;;;27.72;100.00;101398.97;5017317;28;51159;-43
2022/09/30 06:07:27;;;;;;;;;12.75;4.75;;;;;27.75;100.00;101398.75;5004913;28;51457;-41
2022/09/30 06:10:12;;;;;;;;;21.50;21.00;;;;;27.76;100.00;101408.69;5020164;28;51267;-41
2022/09/30 06:12:58;;;;;;;;;33.00;26.25;;;;;27.79;100.00;101413.97;5018363;28;51543;-41
2022/09/30 06:15:43;;;;;;;;;21.50;20.25;;;;;27.82;100.00;101419.25;5020173;28;51665;-40
2022/09/30 06:18:28;;;;;;;;;26.50;23.75;;;;;27.87;100.00;101421.69;5020168;28;51097;-40
2022/09/30 06:21:14;;;;;;;;;28.25;24.75;;;;;27.90;100.00;101422.34;5019950;28;51174;-44
2022/09/30 06:23:59;;;;;;;;;24.75;20.50;;;;;27.92;100.00;101422.25;5020302;28;51513;-43
2022/09/30 06:26:44;;;;;;;;;23.50;23.50;;;;;27.99;100.00;101435.41;5019752;28;50996;-43
2022/09/30 06:29:28;;;;;;;;;33.25;21.50;;;;;28.04;100.00;101440.56;5018001;28;51194;-42
2022/09/30 06:32:13;;;;;;;;;29.50;27.00;;;;;28.04;100.00;101443.31;5019895;28;51558;-42
2022/09/30 06:34:57;;;;;;;;;29.00;24.25;;;;;28.08;100.00;101439.44;5016744;28;51010;-41
2022/09/30 06:37:43;;;;;;;;;24.75;23.00;;;;;28.12;100.00;101442.84;5019495;28;51047;-41
2022/09/30 06:40:28;;;;;;;;;26.25;19.00;;;;;28.13;100.00;101450.94;4999974;28;52574;-41
2022/09/30 06:43:13;;;;;;;;;22.00;19.75;;;;;28.17;100.00;101448.88;5020151;28;51055;-42
2022/09/30 06:45:57;;;;;;;;;46.50;33.75;;;;;28.20;100.00;101443.19;5019772;28;51133;-44
2022/09/30 06:48:42;;;;;;;;;26.50;23.50;;;;;28.22;100.00;101449.44;5017689;28;51052;-43
2022/09/30 06:51:28;;;;;;;;;22.00;19.50;;;;;28.26;100.00;101456.44;5018131;28;51175;-44
2022/09/30 06:54:12;;;;;;;;;22.25;20.50;;;;;28.30;100.00;101457.16;5020167;28;51173;-44
2022/09/30 06:56:57;;;;;;;;;17.50;16.50;;;;;28.36;100.00;101453.13;5018558;28;51460;-42
2022/09/30 06:59:43;;;;;;;;;19.75;19.00;;;;;28.40;100.00;101457.38;5003172;28;51221;-43
2022/09/30 07:02:28;;;;;;;;;33.50;29.75;;;;;28.42;100.00;101455.41;5018743;28;51261;-42
2022/09/30 07:05:14;;;;;;;;;17.50;16.00;;;;;28.48;100.00;101454.13;5019708;28;51048;-40
2022/09/30 07:07:58;;;;;;;;;17.75;16.75;;;;;28.56;100.00;101459.94;5010985;28;51538;-42
2022/09/30 07:10:46;;;;;;;;;27.75;18.75;;;;;28.63;100.00;101463.16;5019166;28;51020;-43
2022/09/30 07:13:32;;;;;;;;;43.50;33.00;;;;;28.67;100.00;101460.09;5002815;28;51626;-40
2022/09/30 07:16:18;;;;;;;;;29.50;24.50;;;;;28.74;100.00;101466.06;5018730;28;51239;-44
2022/09/30 07:19:04;;;;;;;;;41.00;33.00;;;;;28.80;100.00;101467.50;5016824;28;51167;-41
2022/09/30 07:21:49;;;;;;;;;32.50;29.75;;;;;28.83;100.00;101470.88;5018604;28;51495;-40
2022/09/30 07:24:34;;;;;;;;;27.50;20.50;;;;;28.91;100.00;101475.84;5017248;28;51072;-41
2022/09/30 07:27:19;;;;;;;;;13.75;13.25;;;;;28.99;100.00;101472.56;5016433;28;51613;-43
2022/09/30 07:30:05;;;;;;;;;23.25;19.00;;;;;29.06;100.00;101477.47;5018445;28;51132;-40
2022/09/30 07:32:49;;;;;;;;;20.75;16.75;;;;;29.25;100.00;101480.78;5016639;28;51427;-43
2022/09/30 07:35:34;;;;;;;;;13.00;12.00;;;;;29.38;100.00;101471.59;5003300;28;51270;-42
2022/09/30 07:38:20;;;;;;;;;15.50;14.50;;;;;29.53;100.00;101469.63;5018844;28;51394;-43
2022/09/30 07:41:08;;;;;;;;;13.75;13.00;;;;;29.69;100.00;101476.72;5002386;28;51650;-42
2022/09/30 07:43:58;;;;;;;;;18.25;13.00;;;;;29.82;100.00;101468.47;5004363;28;51158;-43
2022/09/30 07:46:43;;;;;;;;;12.75;12.00;;;;;29.99;100.00;101459.03;5018057;28;51470;-38
2022/09/30 07:49:28;;;;;;;;;16.00;11.50;;;;;30.21;100.00;101450.06;5001570;28;51302;-38
2022/09/30 07:52:14;;;;;;;;;8.50;7.50;;;;;30.51;100.00;101451.44;5003889;28;51131;-43
2022/09/30 07:54:58;;;;;;;;;16.75;12.00;;;;;30.87;100.00;101451.47;5018741;28;51100;-41
2022/09/30 07:57:43;;;;;;;;;8.00;5.00;;;;;31.18;100.00;101460.03;5018624;28;51185;-40
2022/09/30 08:00:27;;;;;;;;;21.00;17.25;;;;;31.56;100.00;101433.19;5015550;28;51220;-43
2022/09/30 08:03:12;;;;;;;;;7.00;4.00;;;;;32.48;100.00;101443.00;5017150;28;51024;-44
2022/09/30 08:06:04;;;;;;;;;6.00;5.00;;;;;34.83;100.00;101418.16;5014208;28;51187;-41
2022/09/30 08:08:51;;;;;;;;;10.00;5.50;;;;;36.90;100.00;101402.97;5011709;28;51608;-42
2022/09/30 08:11:37;;;;;;;;;8.25;6.50;;;;;39.10;100.00;101389.03;5008015;28;52638;-41
2022/09/30 08:14:24;;;;;;;;;5.25;3.00;;;;;40.92;100.00;101390.63;5004138;28;51771;-38
2022/09/30 08:17:09;;;;;;;;;3.00;3.00;;;;;42.05;100.00;101365.28;4998279;28;51394;-40
2022/09/30 08:19:54;;;;;;;;;1.25;1.25;;;;;42.58;100.00;101359.34;5001624;28;51174;-42
2022/09/30 08:22:39;;;;;;;;;2.50;2.50;;;;;42.82;100.00;101361.88;5017041;28;51285;-39
2022/09/30 08:25:25;;;;;;;;;7.00;3.25;;;;;42.58;100.00;101364.03;5020293;28;51251;-41
2022/09/30 08:28:09;;;;;;;;;7.00;2.25;;;;;41.27;100.00;101368.63;5020891;28;51170;-38
2022/09/30 08:30:54;;;;;;;;;6.75;3.50;;;;;39.82;100.00;101368.56;5020904;28;51535;-41
2022/09/30 08:33:39;;;;;;;;;2.00;2.00;;;;;38.57;100.00;101372.75;5021343;28;51602;-38
2022/09/30 08:36:25;;;;;;;;;6.75;3.00;;;;;37.69;100.00;101385.28;5015797;28;51559;-41
2022/09/30 08:39:11;;;;;;;;;7.50;5.50;;;;;36.88;100.00;101393.03;5020426;28;51246;-42
2022/09/30 08:42:23;;;;;;;;;6.25;4.25;;;;;36.23;100.00;101389.53;5018451;28;51218;-40
2022/09/30 08:45:31;;;;;;;;;4.00;2.75;;;;;35.67;100.00;101397.06;5015675;28;51454;-41
2022/09/30 08:48:35;;;;;;;;;2.00;2.00;;;;;35.13;100.00;101394.97;5018224;28;51137;-42
2022/09/30 08:51:30;;;;;;;;;7.00;5.25;;;;;34.78;100.00;101401.16;5005026;28;51527;-42
2022/09/30 08:54:22;;;;;;;;;5.00;2.25;;;;;34.57;100.00;101405.84;5005602;28;51415;-41
2022/09/30 08:57:10;;;;;;;;;2.00;2.00;;;;;34.38;100.00;101419.63;5000780;28;51226;-44
2022/09/30 08:59:59;;;;;;;;;6.25;3.75;;;;;34.19;100.00;101421.38;5004456;28;51385;-43
2022/09/30 09:02:48;;;;;;;;;6.25;3.50;;;;;34.18;100.00;101440.88;5000450;28;52085;-42
2022/09/30 09:05:54;;;;;;;;;6.00;4.00;;;;;34.32;100.00;101436.81;5018025;28;51209;-42
2022/09/30 09:09:21;;;;;;;;;2.00;2.00;;;;;34.33;100.00;101453.22;5019343;28;51220;-43
2022/09/30 09:12:47;;;;;;;;;5.75;3.75;;;;;34.26;100.00;101460.34;4969222;28;51194;-41
2022/09/30 09:15:45;;;;;;;;;3.00;3.00;;;;;34.32;100.00;101454.22;5002752;28;51449;-42
2022/09/30 09:18:39;;;;;;;;;4.25;1.50;;;;;34.29;100.00;101452.63;5019733;28;51129;-43
2022/09/30 09:21:58;;;;;;;;;4.25;2.75;;;;;34.41;100.00;101458.06;5018618;28;51473;-43
2022/09/30 09:24:46;;;;;;;;;3.75;3.75;;;;;34.59;100.00;101455.44;4971467;28;51317;-40
2022/09/30 09:27:33;;;;;;;;;2.25;2.25;;;;;34.75;100.00;101457.63;5004093;28;51157;-41
2022/09/30 09:30:20;;;;;;;;;2.25;2.25;;;;;34.65;100.00;101462.28;5018359;28;52556;-41
2022/09/30 09:33:20;;;;;;;;;1.00;0.25;;;;;34.52;100.00;101463.44;5018964;28;51178;-40
2022/09/30 09:36:36;;;;;;;;;4.00;2.50;;;;;34.40;100.00;101462.69;5017473;28;51451;-42
2022/09/30 09:39:56;;;;;;;;;0.00;0.00;;;;;34.27;100.00;101460.19;5003983;28;51468;-41
2022/09/30 09:42:56;;;;;;;;;3.00;3.00;;;;;34.33;100.00;101469.78;5018079;28;51327;-42
2022/09/30 09:45:49;;;;;;;;;5.00;3.00;;;;;34.27;100.00;101473.13;5016518;28;51382;-44
2022/09/30 09:48:34;;;;;;;;;3.50;2.00;;;;;34.21;100.00;101481.97;5016667;28;51392;-45
2022/09/30 09:51:47;;;;;;;;;3.25;2.50;;;;;34.25;100.00;101478.78;5002776;28;51358;-42
2022/09/30 09:54:41;;;;;;;;;3.00;3.00;;;;;34.26;100.00;101482.44;5018447;28;52047;-40
2022/09/30 09:57:31;;;;;;;;;6.50;3.75;;;;;34.25;100.00;101478.78;5004561;28;51273;-44
2022/09/30 10:03:47;;;;;;;;;5.75;3.50;;;;;34.46;100.00;101466.75;4973423;28;51434;-43
2022/09/30 10:06:54;;;;;;;;;6.00;5.00;;;;;34.55;100.00;101465.88;5017659;28;51224;-45
2022/09/30 10:09:41;;;;;;;;;6.50;4.25;;;;;34.34;100.00;101456.88;5017129;28;51130;-44
2022/09/30 10:12:27;;;;;;;;;7.00;4.25;;;;;34.20;100.00;101460.91;5019267;28;51134;-42
2022/09/30 10:15:22;;;;;;;;;6.50;5.50;;;;;34.02;100.00;101471.78;5017521;28;51498;-43
2022/09/30 10:18:46;;;;;;;;;5.50;4.00;;;;;33.90;100.00;101471.91;5003175;28;51233;-40
2022/09/30 10:21:30;;;;;;;;;4.00;3.00;;;;;33.76;100.00;101470.34;5018917;28;51306;-46
2022/09/30 10:24:29;;;;;;;;;5.25;3.50;;;;;33.75;100.00;101476.03;5015940;28;51342;-44
2022/09/30 10:27:33;;;;;;;;;5.75;4.50;;;;;33.95;100.00;101475.09;5013980;28;51279;-43
2022/09/30 10:30:35;;;;;;;;;2.50;2.50;;;;;34.09;100.00;101473.81;5014057;28;51220;-40
2022/09/30 10:33:30;;;;;;;;;8.00;6.00;;;;;34.16;100.00;101470.50;4999572;28;51133;-40
2022/09/30 10:36:19;;;;;;;;;9.25;6.50;;;;;34.30;100.00;101459.91;5001464;28;52329;-42
2022/09/30 10:39:16;;;;;;;;;2.75;2.00;;;;;34.45;100.00;101457.63;5017118;28;52367;-41
2022/09/30 10:42:02;;;;;;;;;7.75;7.00;;;;;34.54;100.00;101458.66;5014034;28;52530;-39
2022/09/30 10:45:01;;;;;;;;;5.00;4.00;;;;;34.60;100.00;101459.97;5015880;28;51286;-42
2022/09/30 10:47:49;;;;;;;;;7.75;3.50;;;;;34.61;100.00;101456.16;5000726;28;51238;-43
2022/09/30 10:50:34;;;;;;;;;4.25;3.75;;;;;34.38;100.00;101423.28;4992714;28;51990;-44
2022/09/30 10:53:33;;;;;;;;;3.50;3.50;;;;;34.63;100.00;101448.59;5001055;28;51357;-42
2022/09/30 10:56:38;;;;;;;;;10.25;6.00;;;;;34.70;100.00;101444.25;5013333;28;51226;-40
2022/09/30 10:59:43;;;;;;;;;4.25;3.25;;;;;34.75;100.00;101439.13;4999404;28;51217;-44
2022/09/30 11:02:37;;;;;;;;;4.25;3.00;;;;;34.67;100.00;101429.81;5012545;28;51084;-42
2022/09/30 11:05:24;;;;;;;;;2.50;2.50;;;;;34.59;100.00;101428.66;5011870;28;52747;-40
2022/09/30 11:08:18;;;;;;;;;6.00;4.00;;;;;34.45;100.00;101416.19;5004819;28;51422;-43
2022/09/30 11:11:19;;;;;;;;;5.00;4.00;;;;;34.23;100.00;101424.72;5016294;28;52151;-44
2022/09/30 11:14:15;;;;;;;;;5.75;5.00;;;;;34.25;100.00;101429.06;4995112;28;51647;-41
2022/09/30 11:17:34;;;;;;;;;4.25;2.50;;;;;34.31;100.00;101433.16;5013311;28;52128;-42
2022/09/30 11:20:50;;;;;;;;;5.00;3.50;;;;;34.29;100.00;101421.38;5015843;28;51218;-44
2022/09/30 11:23:43;;;;;;;;;9.00;6.25;;;;;34.45;100.00;101413.41;5015131;28;51398;-41
2022/09/30 11:26:57;;;;;;;;;9.75;5.25;;;;;34.62;100.00;101399.84;5002363;28;51029;-43
2022/09/30 11:30:20;;;;;;;;;6.00;4.75;;;;;34.82;100.00;101391.53;5015445;28;51139;-42
2022/09/30 11:33:26;;;;;;;;;5.75;1.50;;;;;35.08;100.00;101388.16;5011335;28;51218;-40
2022/09/30 11:36:38;;;;;;;;;6.00;5.00;;;;;35.28;100.00;101384.28;5016791;28;51153;-40
2022/09/30 11:39:39;;;;;;;;;4.25;3.00;;;;;35.40;100.00;101373.88;5000126;28;52344;-41
2022/09/30 11:42:48;;;;;;;;;5.00;3.00;;;;;35.51;100.00;101368.16;4997330;28;51113;-41
2022/09/30 11:45:58;;;;;;;;;6.00;4.25;;;;;35.37;100.00;101361.22;4998527;28;51369;-40
2022/09/30 11:48:55;;;;;;;;;5.25;4.25;;;;;34.94;100.00;101351.66;5016053;28;51116;-42
2022/09/30 11:52:02;;;;;;;;;10.75;9.75;;;;;34.56;100.00;101347.97;5014365;28;51188;-46
2022/09/30 11:55:05;;;;;;;;;13.75;7.00;;;;;34.27;100.00;101337.81;5013493;28;51612;-42
2022/09/30 11:58:05;;;;;;;;;4.25;4.25;;;;;34.24;100.00;101346.38;5013888;28;51252;-40
2022/09/30 12:00:59;;;;;;;;;6.50;5.50;;;;;34.23;100.00;101328.94;5000963;28;51305;-42
2022/09/30 12:03:53;;;;;;;;;7.75;6.50;;;;;34.25;100.00;101331.56;5006356;28;51371;-42
2022/09/30 12:06:59;;;;;;;;;7.50;4.00;;;;;34.08;100.00;101324.88;5003001;28;51238;-40
2022/09/30 12:10:00;;;;;;;;;3.50;3.50;;;;;34.06;100.00;101330.56;5001236;28;51161;-44
2022/09/30 12:12:45;;;;;;;;;1.75;1.75;;;;;34.15;100.00;101312.22;4994635;28;51644;-41
2022/09/30 12:15:31;;;;;;;;;5.25;3.75;;;;;34.17;100.00;101320.38;5002048;28;51467;-39
2022/09/30 12:18:20;;;;;;;;;7.75;7.75;;;;;33.98;100.00;101313.81;5003872;28;51170;-41
2022/09/30 12:21:39;;;;;;;;;9.75;4.25;;;;;33.92;100.00;101311.66;4999889;28;51481;-41
2022/09/30 12:24:28;;;;;;;;;7.00;3.00;;;;;33.79;100.00;101303.63;4989117;28;51186;-40
2022/09/30 12:27:24;;;;;;;;;9.25;5.00;;;;;33.67;100.00;101298.25;5018483;28;51194;-42
2022/09/30 12:30:19;;;;;;;;;3.75;3.00;;;;;33.64;100.00;101308.72;5021144;28;51614;-41
2022/09/30 12:33:04;;;;;;;;;3.00;3.00;;;;;33.67;100.00;101308.41;5004581;28;51700;-41
2022/09/30 12:36:14;;;;;;;;;7.00;5.25;;;;;33.75;100.00;101296.66;5016425;28;51264;-42
2022/09/30 12:39:49;;;;;;;;;4.00;2.00;;;;;33.75;100.00;101282.84;5014317;28;51518;-42
2022/09/30 12:42:49;;;;;;;;;1.75;1.25;;;;;33.65;100.00;101277.34;5002658;28;51380;-42
2022/09/30 12:45:54;;;;;;;;;4.75;3.75;;;;;33.62;100.00;101272.97;4990103;28;51702;-40
2022/09/30 12:49:00;;;;;;;;;3.00;3.00;;;;;33.53;100.00;101266.44;5014714;28;51939;-40
2022/09/30 12:51:50;;;;;;;;;3.00;3.00;;;;;33.26;100.00;101277.22;5019029;28;51432;-40
2022/09/30 12:54:40;;;;;;;;;4.75;3.25;;;;;32.97;100.00;101272.50;5005816;28;51546;-44
2022/09/30 12:57:31;;;;;;;;;2.50;2.00;;;;;32.74;100.00;101269.91;5004975;28;51384;-44
2022/09/30 13:00:19;;;;;;;;;2.00;1.75;;;;;32.52;100.00;101259.97;5004177;28;51200;-41
2022/09/30 13:03:14;;;;;;;;;4.00;1.00;;;;;32.25;100.00;101262.28;5019710;28;51585;-43
2022/09/30 13:06:05;;;;;;;;;2.75;1.00;;;;;32.03;100.00;101267.88;5006206;28;51564;-42
2022/09/30 13:09:30;;;;;;;;;2.50;1.50;;;;;31.95;100.00;101260.28;5005828;28;51704;-43
2022/09/30 13:12:22;;;;;;;;;3.25;1.75;;;;;32.02;100.00;101264.22;4942825;28;51234;-42
2022/09/30 13:15:28;;;;;;;;;2.00;0.00;;;;;32.11;100.00;101257.94;5020770;28;51189;-40